createdAt,value
2024-03-05T00:02:21.076Z,49.50
2024-03-05T00:04:48.229Z,49.50
2024-03-05T00:07:16.845Z,49.30
2024-03-05T00:09:43.600Z,49.40
2024-03-05T00:12:12.848Z,49.40
2024-03-05T00:14:39.692Z,49.30
2024-03-05T00:17:06.326Z,49.40
2024-03-05T00:19:32.972Z,49.40
2024-03-05T00:21:59.639Z,49.40
2024-03-05T00:24:26.678Z,49.30
2024-03-05T00:26:53.783Z,49.40
2024-03-05T00:29:20.444Z,49.30
2024-03-05T00:31:48.050Z,49.30
2024-03-05T00:34:15.757Z,49.40
2024-03-05T00:36:42.392Z,49.40
2024-03-05T00:39:09.364Z,49.30
2024-03-05T00:41:36.042Z,49.30
2024-03-05T00:44:03.326Z,49.30
2024-03-05T00:46:29.995Z,49.20
2024-03-05T00:48:56.634Z,49.20
2024-03-05T00:51:24.523Z,49.30
2024-03-05T00:53:52.064Z,49.30
2024-03-05T00:56:18.684Z,50.00
2024-03-05T00:58:45.830Z,49.30
2024-03-05T01:01:12.538Z,49.20
2024-03-05T01:03:39.303Z,49.90
2024-03-05T01:06:07.185Z,49.20
2024-03-05T01:08:34.114Z,49.30
2024-03-05T01:11:02.032Z,49.30
2024-03-05T01:13:29.094Z,49.30
2024-03-05T01:15:55.756Z,49.30
2024-03-05T01:18:22.592Z,49.20
2024-03-05T01:20:49.275Z,49.90
2024-03-05T01:23:15.942Z,49.30
2024-03-05T01:25:42.622Z,49.20
2024-03-05T01:28:09.314Z,49.20
2024-03-05T01:30:36.009Z,49.10
2024-03-05T01:33:06.689Z,49.20
2024-03-05T01:35:33.579Z,49.10
2024-03-05T01:38:00.289Z,49.20
2024-03-05T01:40:27.046Z,49.20
2024-03-05T01:42:53.701Z,49.20
2024-03-05T01:45:20.464Z,49.10
2024-03-05T01:47:49.059Z,49.20
2024-03-05T01:50:16.103Z,49.20
2024-03-05T01:52:44.809Z,49.10
2024-03-05T01:55:14.132Z,49.10
2024-03-05T01:57:40.887Z,49.10
2024-03-05T02:00:10.734Z,49.10
2024-03-05T02:02:37.559Z,49.20
2024-03-05T02:05:04.275Z,49.10
2024-03-05T02:07:30.910Z,49.20
2024-03-05T02:09:57.744Z,49.70
2024-03-05T02:12:24.972Z,49.20
2024-03-05T02:14:52.678Z,49.20
2024-03-05T02:17:19.328Z,49.20
2024-03-05T02:19:49.435Z,49.20
2024-03-05T02:22:16.831Z,49.20
2024-03-05T02:24:43.569Z,49.10
2024-03-05T02:27:14.379Z,49.20
2024-03-05T02:29:44.184Z,49.10
2024-03-05T02:32:10.819Z,49.00
2024-03-05T02:34:37.486Z,49.10
2024-03-05T02:37:04.826Z,49.00
2024-03-05T02:39:31.569Z,49.00
2024-03-05T02:41:58.183Z,49.00
2024-03-05T02:44:24.791Z,49.00
2024-03-05T02:46:52.059Z,49.00
2024-03-05T02:49:21.109Z,49.00
2024-03-05T02:51:49.022Z,49.00
2024-03-05T02:54:15.740Z,49.00
2024-03-05T02:56:42.413Z,49.00
2024-03-05T02:59:09.062Z,49.10
2024-03-05T03:01:36.319Z,48.50
2024-03-05T03:04:02.961Z,49.00
2024-03-05T03:06:29.565Z,49.00
2024-03-05T03:08:57.222Z,49.00
2024-03-05T03:11:23.969Z,49.00
2024-03-05T03:13:50.800Z,49.00
2024-03-05T03:16:17.517Z,49.00
2024-03-05T03:18:44.224Z,49.00
2024-03-05T03:21:10.838Z,49.00
2024-03-05T03:23:37.540Z,49.00
2024-03-05T03:26:04.321Z,49.00
2024-03-05T03:28:31.096Z,49.00
2024-03-05T03:30:57.799Z,48.90
2024-03-05T03:33:24.622Z,48.90
2024-03-05T03:35:52.508Z,48.80
2024-03-05T03:38:19.116Z,48.80
2024-03-05T03:40:46.502Z,49.40
2024-03-05T03:43:15.610Z,48.80
2024-03-05T03:45:42.467Z,48.70
2024-03-05T03:48:09.136Z,48.70
2024-03-05T03:50:38.332Z,48.80
2024-03-05T03:53:07.711Z,48.70
2024-03-05T03:55:34.845Z,48.80
2024-03-05T03:58:01.601Z,48.80
2024-03-05T04:00:30.363Z,48.80
2024-03-05T04:02:57.064Z,48.90
2024-03-05T04:05:26.122Z,48.80
2024-03-05T04:07:52.791Z,48.90
2024-03-05T04:10:19.560Z,48.80
2024-03-05T04:12:46.309Z,48.80
2024-03-05T04:15:13.695Z,48.80
2024-03-05T04:17:41.123Z,48.80
2024-03-05T04:20:10.286Z,48.80
2024-03-05T04:22:40.916Z,48.70
2024-03-05T04:25:07.944Z,48.70
2024-03-05T04:27:36.667Z,48.70
2024-03-05T04:30:04.947Z,48.70
2024-03-05T04:32:31.902Z,48.70
2024-03-05T04:35:07.795Z,48.70
2024-03-05T04:37:34.597Z,48.70
2024-03-05T04:40:01.335Z,48.70
2024-03-05T04:42:28.029Z,48.70
2024-03-05T04:44:54.769Z,48.70
2024-03-05T04:47:21.924Z,48.70
2024-03-05T04:49:49.120Z,48.70
2024-03-05T04:52:15.987Z,48.60
2024-03-05T04:54:42.674Z,48.70
2024-03-05T04:57:09.487Z,48.70
2024-03-05T04:59:36.099Z,48.70
2024-03-05T05:02:03.025Z,48.70
2024-03-05T05:04:30.568Z,48.70
2024-03-05T05:06:57.589Z,48.70
2024-03-05T05:09:24.776Z,48.80
2024-03-05T05:11:52.552Z,48.80
2024-03-05T05:14:19.313Z,49.00
2024-03-05T05:16:46.766Z,48.90
2024-03-05T05:19:15.355Z,49.00
2024-03-05T05:21:42.289Z,49.10
2024-03-05T05:24:08.904Z,49.10
2024-03-05T05:26:35.483Z,49.20
2024-03-05T05:29:02.207Z,49.30
2024-03-05T05:31:29.186Z,49.30
2024-03-05T05:33:58.825Z,49.40
2024-03-05T05:36:25.542Z,49.40
2024-03-05T05:38:52.249Z,49.50
2024-03-05T05:41:22.652Z,49.60
2024-03-05T05:43:49.582Z,49.60
2024-03-05T05:46:17.027Z,49.60
2024-03-05T05:48:43.893Z,49.70
2024-03-05T05:51:11.447Z,49.70
2024-03-05T05:53:38.794Z,49.70
2024-03-05T05:56:06.882Z,49.80
2024-03-05T05:58:34.542Z,50.00
2024-03-05T06:01:05.235Z,50.30
2024-03-05T06:03:32.918Z,50.20
2024-03-05T06:05:59.532Z,50.30
2024-03-05T06:08:26.909Z,50.10
2024-03-05T06:10:54.048Z,50.20
2024-03-05T06:13:22.188Z,50.30
2024-03-05T06:15:51.025Z,50.40
2024-03-05T06:18:17.948Z,50.30
2024-03-05T06:20:44.638Z,50.40
2024-03-05T06:23:12.682Z,50.30
2024-03-05T06:25:40.767Z,50.30
2024-03-05T06:28:10.647Z,50.40
2024-03-05T06:30:37.354Z,50.40
2024-03-05T06:33:07.525Z,50.30
2024-03-05T06:35:34.236Z,50.40
2024-03-05T06:38:02.217Z,50.40
2024-03-05T06:40:29.584Z,50.40
2024-03-05T06:43:06.522Z,50.50
2024-03-05T06:45:36.115Z,50.50
2024-03-05T06:48:15.752Z,50.50
2024-03-05T06:50:44.266Z,50.50
2024-03-05T06:53:29.697Z,50.50
2024-03-05T06:56:14.992Z,50.50
2024-03-05T06:58:45.483Z,50.50
2024-03-05T07:01:12.876Z,50.60
2024-03-05T07:03:39.901Z,50.50
2024-03-05T07:06:10.820Z,50.50
2024-03-05T07:08:39.867Z,50.50
2024-03-05T07:11:09.546Z,50.50
2024-03-05T07:13:37.770Z,50.50
2024-03-05T07:16:05.071Z,50.50
2024-03-05T07:18:31.783Z,50.60
2024-03-05T07:20:58.448Z,50.50
2024-03-05T07:23:25.702Z,50.50
2024-03-05T07:25:52.303Z,50.60
2024-03-05T07:28:18.984Z,50.50
2024-03-05T07:30:45.607Z,50.60
2024-03-05T07:33:12.569Z,50.50
2024-03-05T07:35:40.882Z,50.60
2024-03-05T07:38:10.358Z,50.60
2024-03-05T07:40:37.066Z,50.60
2024-03-05T07:43:05.345Z,50.70
2024-03-05T07:45:32.524Z,50.60
2024-03-05T07:47:59.286Z,50.60
2024-03-05T07:50:25.978Z,50.60
2024-03-05T07:52:55.125Z,50.60
2024-03-05T07:55:29.403Z,50.70
2024-03-05T07:57:58.851Z,50.60
2024-03-05T08:00:25.512Z,50.60
2024-03-05T08:02:54.682Z,50.60
2024-03-05T08:05:24.579Z,50.60
2024-03-05T08:07:52.888Z,50.60
2024-03-05T08:10:19.779Z,50.60
2024-03-05T08:12:47.349Z,51.20
2024-03-05T08:15:14.267Z,50.60
2024-03-05T08:17:41.352Z,50.60
2024-03-05T08:20:08.370Z,50.70
2024-03-05T08:22:35.575Z,50.70
2024-03-05T08:25:10.575Z,50.70
2024-03-05T08:27:40.604Z,50.70
2024-03-05T08:30:09.127Z,50.70
2024-03-05T08:32:38.964Z,50.70
2024-03-05T08:35:06.615Z,50.70
2024-03-05T08:37:33.297Z,50.70
2024-03-05T08:39:59.983Z,50.60
2024-03-05T08:42:26.656Z,50.70
2024-03-05T08:44:54.132Z,50.50
2024-03-05T08:47:20.881Z,50.60
2024-03-05T08:49:51.683Z,50.60
2024-03-05T08:52:18.949Z,50.50
2024-03-05T08:54:45.574Z,50.60
2024-03-05T08:57:12.197Z,50.50
2024-03-05T08:59:38.842Z,50.50
2024-03-05T09:02:05.906Z,50.50
2024-03-05T09:04:32.608Z,50.50
2024-03-05T09:06:59.272Z,50.50
2024-03-05T09:09:30.130Z,50.50
2024-03-05T09:11:59.620Z,50.50
2024-03-05T09:14:26.918Z,50.50
2024-03-05T09:16:54.490Z,50.50
2024-03-05T09:19:22.908Z,50.50
2024-03-05T09:21:53.065Z,50.50
2024-03-05T09:24:19.676Z,50.50
2024-03-05T09:26:46.585Z,50.50
2024-03-05T09:29:16.232Z,50.50
2024-03-05T09:31:43.864Z,51.10
2024-03-05T09:34:10.463Z,50.40
2024-03-05T09:36:38.206Z,50.50
2024-03-05T09:39:10.156Z,50.50
2024-03-05T09:41:44.550Z,50.50
2024-03-05T09:44:11.383Z,50.50
2024-03-05T09:46:42.595Z,50.40
2024-03-05T09:49:17.976Z,50.40
2024-03-05T09:51:49.366Z,50.40
2024-03-05T09:54:16.089Z,50.40
2024-03-05T09:56:45.882Z,50.40
2024-03-05T09:59:18.546Z,50.40
2024-03-05T10:01:46.838Z,50.40
2024-03-05T10:04:13.975Z,50.40
2024-03-05T10:06:40.661Z,50.40
2024-03-05T10:09:10.108Z,50.40
2024-03-05T10:11:37.499Z,50.40
2024-03-05T10:14:05.749Z,50.40
2024-03-05T10:16:32.394Z,50.40
2024-03-05T10:18:58.980Z,50.40
2024-03-05T10:21:26.253Z,50.40
2024-03-05T10:23:59.610Z,50.20
2024-03-05T10:26:28.505Z,50.30
2024-03-05T10:28:56.609Z,50.40
2024-03-05T10:31:27.343Z,50.40
2024-03-05T10:33:54.481Z,50.40
2024-03-05T10:36:24.870Z,50.40
2024-03-05T10:38:52.115Z,50.40
2024-03-05T10:41:31.787Z,50.30
2024-03-05T10:44:01.847Z,50.20
2024-03-05T10:46:32.016Z,50.20
2024-03-05T10:48:59.024Z,50.10
2024-03-05T10:51:27.697Z,50.10
2024-03-05T10:53:54.293Z,50.10
2024-03-05T10:56:28.651Z,50.10
2024-03-05T10:59:14.484Z,50.00
2024-03-05T11:01:41.666Z,50.00
2024-03-05T11:04:20.428Z,50.00
2024-03-05T11:06:48.440Z,50.10
2024-03-05T11:09:21.155Z,50.10
2024-03-05T11:11:49.019Z,50.70
2024-03-05T11:14:15.755Z,50.10
2024-03-05T11:16:42.416Z,50.00
2024-03-05T11:19:09.165Z,50.10
2024-03-05T11:21:36.348Z,50.00
2024-03-05T11:24:03.713Z,50.10
2024-03-05T11:26:30.399Z,50.00
2024-03-05T11:29:01.691Z,50.00
2024-03-05T11:31:28.641Z,50.00
2024-03-05T11:34:04.858Z,50.00
2024-03-05T11:36:37.964Z,50.50
2024-03-05T11:39:04.876Z,50.00
2024-03-05T11:41:37.373Z,50.00
2024-03-05T11:44:04.551Z,49.90
2024-03-05T11:46:40.906Z,49.80
2024-03-05T11:49:07.642Z,49.90
2024-03-05T11:51:34.253Z,49.80
2024-03-05T11:54:00.870Z,49.90
2024-03-05T11:56:27.495Z,49.90
2024-03-05T11:58:55.755Z,49.90
2024-03-05T12:01:22.706Z,50.00
2024-03-05T12:03:50.436Z,49.80
2024-03-05T12:06:17.183Z,49.80
2024-03-05T12:08:43.819Z,49.80
2024-03-05T12:11:10.681Z,49.80
2024-03-05T12:13:37.402Z,49.80
2024-03-05T12:16:11.852Z,49.90
2024-03-05T12:18:44.781Z,49.90
2024-03-05T12:21:11.751Z,49.90
2024-03-05T12:23:42.038Z,49.90
2024-03-05T12:26:10.464Z,49.90
2024-03-05T12:28:37.313Z,49.90
2024-03-05T12:31:04.216Z,50.10
2024-03-05T12:33:31.771Z,49.90
2024-03-05T12:35:59.516Z,49.80
2024-03-05T12:38:26.900Z,49.60
2024-03-05T12:41:00.249Z,49.40
2024-03-05T12:43:30.032Z,49.60
2024-03-05T12:46:01.506Z,49.20
2024-03-05T12:48:28.165Z,49.30
2024-03-05T12:50:54.902Z,49.30
2024-03-05T12:53:21.610Z,49.30
2024-03-05T12:55:48.359Z,49.30
2024-03-05T12:58:15.083Z,49.20
2024-03-05T13:00:41.704Z,49.20
2024-03-05T13:03:09.015Z,49.20
2024-03-05T13:05:36.103Z,49.10
2024-03-05T13:08:02.921Z,49.70
2024-03-05T13:10:30.098Z,49.10
2024-03-05T13:12:56.801Z,49.00
2024-03-05T13:15:23.531Z,49.10
2024-03-05T13:17:54.065Z,49.10
2024-03-05T13:20:20.671Z,49.10
2024-03-05T13:22:55.046Z,49.30
2024-03-05T13:25:25.396Z,49.30
2024-03-05T13:27:52.225Z,49.40
2024-03-05T13:30:21.796Z,49.30
2024-03-05T13:32:48.825Z,49.30
2024-03-05T13:35:15.794Z,49.30
2024-03-05T13:37:43.866Z,49.30
2024-03-05T13:40:14.224Z,49.40
2024-03-05T13:42:40.832Z,49.40
2024-03-05T13:45:14.060Z,49.30
2024-03-05T13:47:40.865Z,49.40
2024-03-05T13:50:11.334Z,49.40
2024-03-05T13:52:42.671Z,49.40
2024-03-05T13:55:10.128Z,49.50
2024-03-05T13:57:36.807Z,49.50
2024-03-05T14:00:04.001Z,49.40
2024-03-05T14:02:30.628Z,49.40
2024-03-05T14:04:57.292Z,49.50
2024-03-05T14:07:24.002Z,49.40
2024-03-05T14:09:50.610Z,49.40
2024-03-05T14:12:18.367Z,49.40
2024-03-05T14:14:45.033Z,49.60
2024-03-05T14:17:11.745Z,49.50
2024-03-05T14:19:41.418Z,49.40
2024-03-05T14:22:08.219Z,49.50
2024-03-05T14:24:34.829Z,49.40
2024-03-05T14:27:01.525Z,49.40
2024-03-05T14:29:29.334Z,49.40
2024-03-05T14:31:55.958Z,49.50
2024-03-05T14:34:22.706Z,49.50
2024-03-05T14:36:49.980Z,49.60
2024-03-05T14:39:16.848Z,49.50
2024-03-05T14:41:44.104Z,49.50
2024-03-05T14:44:12.094Z,49.60
2024-03-05T14:46:40.387Z,49.60
2024-03-05T14:49:09.094Z,49.60
2024-03-05T14:51:36.079Z,49.70
2024-03-05T14:54:02.839Z,49.70
2024-03-05T14:56:31.627Z,49.70
2024-03-05T14:58:58.453Z,49.60
2024-03-05T15:01:26.883Z,49.70
2024-03-05T15:03:54.195Z,49.60
2024-03-05T15:06:20.956Z,49.70
2024-03-05T15:08:47.666Z,49.60
2024-03-05T15:11:14.559Z,49.70
2024-03-05T15:13:41.339Z,49.60
2024-03-05T15:16:11.968Z,49.60
2024-03-05T15:18:38.690Z,50.20
2024-03-05T15:21:09.599Z,49.60
2024-03-05T15:23:36.244Z,49.60
2024-03-05T15:26:03.235Z,49.60
2024-03-05T15:28:30.621Z,49.60
2024-03-05T15:30:57.296Z,49.70
2024-03-05T15:33:24.046Z,49.70
2024-03-05T15:35:50.741Z,49.70
2024-03-05T15:38:18.211Z,49.70
2024-03-05T15:40:45.055Z,49.80
2024-03-05T15:43:14.258Z,50.00
2024-03-05T15:45:42.022Z,50.00
2024-03-05T15:48:11.617Z,49.90
2024-03-05T15:50:41.276Z,49.80
2024-03-05T15:53:08.111Z,50.00
2024-03-05T15:55:40.052Z,50.00
2024-03-05T15:58:07.188Z,50.00
2024-03-05T16:00:37.748Z,50.00
2024-03-05T16:03:05.912Z,50.00
2024-03-05T16:05:43.263Z,49.60
2024-03-05T16:08:21.788Z,49.80
2024-03-05T16:10:49.580Z,50.00
2024-03-05T16:13:17.708Z,50.00
2024-03-05T16:15:47.395Z,49.90
2024-03-05T16:18:14.412Z,49.90
2024-03-05T16:20:41.128Z,50.00
2024-03-05T16:23:08.851Z,50.50
2024-03-05T16:25:40.187Z,49.90
2024-03-05T16:28:07.045Z,49.90
2024-03-05T16:30:34.309Z,49.90
2024-03-05T16:33:01.163Z,49.90
2024-03-05T16:35:28.321Z,50.00
2024-03-05T16:37:55.190Z,50.10
2024-03-05T16:40:22.306Z,49.90
2024-03-05T16:42:51.946Z,50.00
2024-03-05T16:45:18.928Z,50.00
2024-03-05T16:47:46.094Z,50.00
2024-03-05T16:50:19.004Z,50.00
2024-03-05T16:52:55.569Z,50.00
2024-03-05T16:55:25.049Z,50.10
2024-03-05T16:57:53.405Z,50.00
2024-03-05T17:00:28.867Z,50.00
2024-03-05T17:03:07.277Z,50.10
2024-03-05T17:05:37.541Z,50.00
2024-03-05T17:08:11.683Z,50.00
2024-03-05T17:10:40.810Z,50.00
2024-03-05T17:13:08.233Z,50.00
2024-03-05T17:15:39.402Z,50.10
2024-03-05T17:18:06.633Z,50.20
2024-03-05T17:20:34.362Z,50.30
2024-03-05T17:23:03.307Z,50.70
2024-03-05T17:25:33.363Z,50.70
2024-03-05T17:28:00.096Z,50.70
2024-03-05T17:30:26.725Z,50.60
2024-03-05T17:32:53.363Z,50.50
2024-03-05T17:35:20.037Z,50.40
2024-03-05T17:37:47.080Z,50.10
2024-03-05T17:40:14.566Z,50.10
2024-03-05T17:42:41.530Z,50.10
2024-03-05T17:45:09.011Z,50.10
2024-03-05T17:47:38.608Z,50.00
2024-03-05T17:50:07.069Z,50.00
2024-03-05T17:52:36.671Z,50.30
2024-03-05T17:55:07.001Z,50.30
2024-03-05T17:57:38.015Z,50.30
2024-03-05T18:00:12.803Z,50.00
2024-03-05T18:02:40.529Z,50.50
2024-03-05T18:05:08.267Z,50.60
2024-03-05T18:07:36.719Z,50.90
2024-03-05T18:10:06.089Z,51.10
2024-03-05T18:12:33.981Z,51.50
2024-03-05T18:15:01.726Z,51.50
2024-03-05T18:17:30.558Z,52.10
2024-03-05T18:19:57.696Z,52.10
2024-03-05T18:22:25.533Z,52.80
2024-03-05T18:24:53.449Z,52.40
2024-03-05T18:27:21.898Z,52.50
2024-03-05T18:29:48.719Z,52.40
2024-03-05T18:32:15.528Z,52.40
2024-03-05T18:34:43.924Z,52.40
2024-03-05T18:37:12.521Z,52.40
2024-03-05T18:39:39.250Z,52.50
2024-03-05T18:42:06.453Z,52.90
2024-03-05T18:44:34.467Z,52.30
2024-03-05T18:47:01.242Z,52.20
2024-03-05T18:49:29.033Z,52.20
2024-03-05T18:51:56.600Z,51.80
2024-03-05T18:54:23.483Z,51.80
2024-03-05T18:56:50.106Z,51.80
2024-03-05T18:59:19.342Z,51.60
2024-03-05T19:01:46.526Z,51.70
2024-03-05T19:04:13.245Z,51.50
2024-03-05T19:06:40.618Z,51.40
2024-03-05T19:09:09.971Z,51.40
2024-03-05T19:11:37.192Z,51.30
2024-03-05T19:14:08.032Z,51.40
2024-03-05T19:16:36.195Z,51.30
2024-03-05T19:19:04.069Z,51.50
2024-03-05T19:21:30.963Z,51.70
2024-03-05T19:23:57.928Z,51.30
2024-03-05T19:26:27.423Z,51.30
2024-03-05T19:28:54.171Z,51.20
2024-03-05T19:31:20.836Z,51.10
2024-03-05T19:33:47.468Z,51.10
2024-03-05T19:36:14.951Z,51.10
2024-03-05T19:38:42.920Z,51.10
2024-03-05T19:41:11.242Z,51.00
2024-03-05T19:43:41.486Z,51.00
2024-03-05T19:46:08.287Z,51.00
2024-03-05T19:48:34.961Z,51.60
2024-03-05T19:51:02.533Z,51.00
2024-03-05T19:53:30.328Z,50.90
2024-03-05T19:55:57.230Z,50.70
2024-03-05T19:58:24.661Z,50.80
2024-03-05T20:00:51.345Z,50.80
2024-03-05T20:03:17.985Z,50.80
2024-03-05T20:05:46.649Z,50.80
2024-03-05T20:08:16.183Z,50.70
2024-03-05T20:10:45.486Z,50.70
2024-03-05T20:13:12.338Z,50.70
2024-03-05T20:15:38.959Z,50.90
2024-03-05T20:18:05.726Z,50.60
2024-03-05T20:20:32.382Z,50.50
2024-03-05T20:23:00.588Z,50.80
2024-03-05T20:25:27.405Z,50.50
2024-03-05T20:27:54.923Z,50.50
2024-03-05T20:30:23.392Z,50.50
2024-03-05T20:32:51.492Z,50.50
2024-03-05T20:35:20.008Z,50.60
2024-03-05T20:37:51.743Z,50.50
2024-03-05T20:40:19.585Z,50.50
2024-03-05T20:42:47.566Z,50.40
2024-03-05T20:45:14.386Z,50.50
2024-03-05T20:47:41.164Z,50.50
2024-03-05T20:50:11.395Z,50.50
2024-03-05T20:52:38.327Z,50.40
2024-03-05T20:55:05.234Z,50.40
2024-03-05T20:57:35.077Z,50.50
2024-03-05T21:00:06.959Z,50.50
2024-03-05T21:02:36.708Z,50.40
2024-03-05T21:05:05.751Z,50.40
2024-03-05T21:07:32.994Z,50.50
2024-03-05T21:10:08.320Z,50.40
2024-03-05T21:12:38.300Z,50.40
2024-03-05T21:15:11.811Z,50.40
2024-03-05T21:17:39.063Z,50.30
2024-03-05T21:20:09.600Z,50.30
2024-03-05T21:22:39.563Z,50.30
2024-03-05T21:25:07.056Z,50.30
2024-03-05T21:27:37.763Z,50.30
2024-03-05T21:30:07.441Z,50.30
2024-03-05T21:32:34.268Z,50.30
2024-03-05T21:35:02.383Z,50.30
2024-03-05T21:37:29.135Z,50.30
2024-03-05T21:39:55.791Z,50.20
2024-03-05T21:42:23.187Z,50.20
2024-03-05T21:44:49.878Z,50.20
2024-03-05T21:47:16.546Z,50.20
2024-03-05T21:49:43.201Z,50.20
2024-03-05T21:52:09.840Z,50.20
2024-03-05T21:54:36.489Z,50.20
2024-03-05T21:57:04.436Z,50.10
2024-03-05T21:59:31.029Z,50.10
2024-03-05T22:01:58.304Z,50.10
2024-03-05T22:04:25.591Z,50.00
2024-03-05T22:06:53.456Z,50.00
2024-03-05T22:09:21.546Z,50.00
2024-03-05T22:11:48.731Z,50.00
2024-03-05T22:14:15.489Z,50.00
2024-03-05T22:16:42.251Z,50.00
2024-03-05T22:19:09.344Z,50.00
2024-03-05T22:21:37.864Z,50.00
2024-03-05T22:24:04.824Z,50.00
2024-03-05T22:26:31.463Z,50.00
2024-03-05T22:28:58.107Z,50.00
2024-03-05T22:31:24.845Z,50.00
2024-03-05T22:33:51.528Z,50.00
2024-03-05T22:36:18.487Z,50.10
2024-03-05T22:38:45.160Z,50.10
2024-03-05T22:41:11.922Z,50.00
2024-03-05T22:43:38.768Z,50.10
2024-03-05T22:46:05.794Z,50.10
2024-03-05T22:48:32.403Z,50.10
2024-03-05T22:50:59.608Z,50.00
2024-03-05T22:53:26.438Z,50.00
2024-03-05T22:55:53.150Z,50.00
2024-03-05T22:58:19.958Z,50.00
2024-03-05T23:00:51.523Z,50.00
2024-03-05T23:03:18.731Z,50.00
2024-03-05T23:05:46.339Z,49.90
2024-03-05T23:08:13.242Z,49.90
2024-03-05T23:10:40.020Z,49.80
2024-03-05T23:13:06.721Z,49.80
2024-03-05T23:15:37.870Z,49.80
2024-03-05T23:18:04.759Z,49.90
2024-03-05T23:20:31.609Z,49.90
2024-03-05T23:22:58.276Z,49.80
2024-03-05T23:25:26.507Z,49.90
2024-03-05T23:27:53.111Z,49.90
2024-03-05T23:30:19.942Z,49.90
2024-03-05T23:32:46.752Z,50.00
2024-03-05T23:35:13.668Z,49.90
2024-03-05T23:37:40.405Z,49.90
2024-03-05T23:40:07.611Z,49.90
2024-03-05T23:42:34.447Z,50.00
2024-03-05T23:45:01.520Z,50.00
2024-03-05T23:47:28.207Z,50.50
2024-03-05T23:49:54.906Z,50.00
2024-03-05T23:52:21.546Z,49.90
2024-03-05T23:54:48.173Z,49.90
2024-03-05T23:57:15.304Z,49.90
2024-03-05T23:59:41.997Z,49.80
